CheckWX is a tool to help pilots better visualize weather data.  It is not intended as a substitute for an official pre-flight weather briefing.

01:35:53 UTC

KAJR METAR
Habersham County Airport
Cornelia, Georgia, USA
Current

41 mins ago

KAJR 200055Z AUTO 00000KT 10SM CLR 22/18 A3012 RMK AO2 T02180183
Observed
Aug-20 @ 00:55 UTC
Visibility
10 SM
Flight Rules
VFR
Cloud Levels
  • Clear skies
Temperature
22°C / 72°F
Dewpoint
18°C / 64°F
Humidity
78%
Altimeter
30.12" Hg
Pressure
1020.02 hPa
Previous

1 hour ago

KAJR 200035Z AUTO 00000KT 10SM CLR 22/18 A3010 RMK AO2 T02230182
Observed
Aug-20 @ 00:35 UTC
Visibility
10 SM
Flight Rules
VFR
Cloud Levels
  • Clear skies
Temperature
22°C / 72°F
Dewpoint
18°C / 64°F
Humidity
78%
Altimeter
30.1" Hg
Pressure
1019.32 hPa
Previous

2 hours ago

KAJR 192355Z AUTO 08005KT 7SM CLR 23/18 A3010 RMK AO2 LTG DSNT NE T02280181 10321 20228
Observed
Aug-19 @ 23:55 UTC
Wind
  • 080° at 5 KTS
Visibility
7 SM
Flight Rules
VFR
Cloud Levels
  • Clear skies
Temperature
23°C / 73°F
Dewpoint
18°C / 64°F
Humidity
74%
Altimeter
30.1" Hg
Pressure
1019.32 hPa